Latest Weather Observations for Mount Hotham Airport

IDV60801

Issued at 6:32 am EST Tuesday 27 June 2017 (issued every 30 minutes, with the page automatically refreshed every 10 minutes)

About weather observations | Map of weather stations | Latest weather observations for VIC | Other Formats
Station Details ID: 083055 Name: MOUNT HOTHAM AIRPORT Lat: -37.05 Lon: 147.33 Height: 1295.4 m
Data from the previous 72 hours. | See also: Recent months at Mount Hotham Airport
Date/Time
EST
Temp
°C
App
Temp
°C
Dew
Point
°C
Rel
Hum
%
Delta-T
°C
Wind Press
QNH
hPa
Press
MSL
hPa
Rain since
9am
mm
Dir  Spd
km/h
Gust
km/h
Spd
kts
Gust
kts
27/06:30am -3.6 -7.4 -3.7 99 -0.1 NW 7 9 4 5 1023.6 - 0.0
27/06:00am -2.2 -5.3 -2.3 99 -0.1 WNW 4 6 2 3 1023.5 1026.8 0.0
27/05:30am -1.7 -4.3 -1.8 99 0.0 NW 2 6 1 3 1023.3 - 0.0
27/05:00am -1.7 -5.1 -1.8 99 0.0 NW 6 7 3 4 1023.6 - 0.0
27/04:30am -1.4 -4.4 -1.5 99 0.0 NW 4 6 2 3 1023.7 - 0.0
27/04:00am -0.9 -3.8 -1.0 99 0.0 NW 4 6 2 3 1023.6 - 0.0
27/03:30am -0.8 -2.9 -0.9 99 0.0 CALM 0 0 0 0 1023.7 - 0.0
27/03:00am -0.8 -3.7 -0.9 99 0.0 NW 4 7 2 4 1024.0 1027.3 0.0
27/02:30am -0.7 -3.9 -0.8 99 0.0 NNW 6 7 3 4 1024.1 - 0.0
27/02:27am -0.6 -3.8 -0.7 99 0.0 NW 6 7 3 4 1024.1 - 0.0
27/02:24am -0.5 -3.7 -0.6 99 0.0 NW 6 7 3 4 1024.0 - 0.0
27/02:22am -0.6 -3.8 -0.7 99 0.0 NW 6 7 3 4 1024.1 - 0.0
27/02:19am -0.5 -3.7 -0.6 99 0.0 NW 6 7 3 4 1024.0 - 0.0
27/02:00am -0.3 -3.1 -0.4 99 0.0 NNW 4 6 2 3 1023.9 - 0.0
27/01:51am -0.3 -3.1 -0.4 99 0.0 NNW 4 6 2 3 1023.7 - 0.0
27/01:46am -0.3 -3.1 -0.4 99 0.0 NNW 4 6 2 3 1023.7 - 0.0
27/01:43am -0.4 -3.6 -0.5 99 0.0 NW 6 7 3 4 1023.8 - 0.0
27/01:38am -0.4 -3.6 -0.5 99 0.0 NW 6 7 3 4 1023.8 - 0.0
27/01:30am -0.3 -3.5 -0.4 99 0.0 NW 6 7 3 4 1023.8 - 0.0
27/01:00am -0.2 -3.4 -0.3 99 0.0 ENE 6 9 3 5 1023.6 - 0.0
27/12:30am -0.1 -2.9 -0.2 99 0.0 NNE 4 11 2 6 1023.8 - 0.0
27/12:00am -0.1 -3.3 -0.2 99 0.0 NNE 6 9 3 5 1023.8 1027.1 0.0
 
Date/Time
EST
Temp
°C
App
Temp
°C
Dew
Point
°C
Rel
Hum
%
Delta-T
°C
Wind Press
QNH
hPa
Press
MSL
hPa
Rain since
9am
mm
Dir  Spd
km/h
Gust
km/h
Spd
kts
Gust
kts
26/11:37pm -0.2 -3.0 -0.3 99 0.0 NE 4 7 2 4 1023.9 - 0.0
26/11:32pm -0.2 -3.0 -0.3 99 0.0 NE 4 7 2 4 1023.9 - 0.0
26/11:30pm -0.3 -3.1 -0.4 99 0.0 NE 4 7 2 4 1023.9 - 0.0
26/11:25pm -0.6 -3.8 -0.7 99 0.0 NE 6 7 3 4 1024.0 - 0.0
26/11:20pm -0.6 -3.8 -0.7 99 0.0 NE 6 7 3 4 1024.0 - 0.0
26/11:08pm -2.2 -4.5 -2.3 99 -0.1 CALM 0 4 0 2 1024.1 - 0.0
26/11:07pm -2.5 -4.9 -2.8 98 0.0 CALM 0 4 0 2 1024.1 - 0.0
26/11:03pm -2.2 -4.5 -2.3 99 -0.1 CALM 0 4 0 2 1024.1 - 0.0
26/11:02pm -2.5 -4.9 -2.8 98 0.0 CALM 0 4 0 2 1024.1 - 0.0
26/11:00pm -3.3 -5.8 -3.6 98 0.0 CALM 0 0 0 0 1024.1 - 0.0
26/10:49pm -2.0 -4.7 -2.3 98 0.0 WNW 2 6 1 3 1024.2 - 0.0
26/10:44pm -2.0 -4.7 -2.3 98 0.0 WNW 2 6 1 3 1024.2 - 0.0
26/10:30pm -1.9 -4.9 -2.2 98 0.0 WNW 4 6 2 3 1024.2 - 0.0
26/10:27pm -1.9 -4.9 -2.0 99 -0.1 W 4 6 2 3 1024.2 - 0.0
26/10:22pm -1.9 -4.9 -2.0 99 -0.1 W 4 6 2 3 1024.2 - 0.0
26/10:11pm -2.7 -5.9 -3.2 96 0.1 W 4 4 2 2 1024.2 - 0.0
26/10:06pm -2.7 -5.9 -3.2 96 0.1 W 4 4 2 2 1024.2 - 0.0
26/10:00pm -2.0 -5.1 -2.4 97 0.0 NW 4 4 2 2 1024.2 - 0.0
26/09:30pm -1.8 -4.5 -2.5 95 0.2 W 2 4 1 2 1024.1 - 0.0
26/09:00pm -1.7 -4.5 -3.1 90 0.4 W 2 4 1 2 1024.0 1027.3 0.0
26/08:30pm 0.1 -2.1 -1.5 89 0.6 CALM 0 0 0 0 1024.1 - 0.0
26/08:00pm 0.7 -1.5 -1.5 85 0.9 CALM 0 0 0 0 1024.0 - 0.0
26/07:30pm 1.1 -1.1 -1.5 83 1.0 CALM 0 2 0 1 1023.9 - 0.0
26/07:00pm 1.6 -0.5 -1.1 82 1.1 CALM 0 0 0 0 1023.8 - 0.0
26/06:30pm 2.1 -0.1 -1.3 78 1.3 CALM 0 2 0 1 1023.3 - 0.0
26/06:00pm 2.3 -0.6 -1.1 78 1.3 S 4 4 2 2 1023.0 1026.3 0.0
26/05:30pm 2.9 0.0 -1.1 75 1.6 SSE 4 7 2 4 1022.8 - 0.0
26/05:00pm 3.4 -0.1 -1.0 73 1.8 SSE 7 11 4 6 1022.4 - 0.0
26/04:30pm 3.9 0.5 -0.9 71 1.9 S 7 11 4 6 1022.1 - 0.0
26/04:00pm 4.5 1.1 -0.9 68 2.2 S 7 11 4 6 1021.9 - 0.0
26/03:30pm 5.3 1.9 -0.5 66 2.4 SSE 7 7 4 4 1021.6 - 0.0
26/03:00pm 5.3 1.5 -0.9 64 2.5 SE 9 13 5 7 1021.4 1024.7 0.0
26/02:30pm 6.9 3.4 -1.0 57 3.3 NNE 7 15 4 8 1021.3 - 0.0
26/02:00pm 7.8 4.9 -0.9 54 3.6 SW 4 9 2 5 1021.2 - 0.0
26/01:30pm 5.1 1.8 -1.6 62 2.7 E 6 7 3 4 1021.3 - 0.0
26/01:00pm 5.1 1.5 -2.0 60 2.8 SSW 7 13 4 7 1021.3 - 0.0
26/12:30pm 5.2 1.7 -1.3 63 2.6 SW 7 11 4 6 1021.3 - 0.0
26/12:00pm 5.8 2.9 -0.9 62 2.7 S 4 13 2 7 1021.5 1024.9 0.0
26/11:30am 4.0 0.5 -1.4 68 2.1 S 7 13 4 7 1021.9 - 0.0
26/11:00am 3.9 0.4 -1.1 70 2.0 SSE 7 13 4 7 1021.9 - 0.0
26/10:30am 4.5 0.8 -0.3 71 2.0 SSE 9 17 5 9 1021.8 - 0.0
26/10:00am 4.1 0.9 -0.7 71 1.9 SSW 6 11 3 6 1021.4 - 0.0
26/09:30am 3.7 0.4 -0.9 72 1.8 SW 6 9 3 5 1021.4 - 0.0
26/09:00am 3.5 1.0 -0.7 74 1.7 WNW 2 6 1 3 1020.5 1023.7 0.0
26/08:30am 2.3 0.2 -0.6 81 1.2 CALM 0 0 0 0 1020.2 - 0.0
26/08:00am 0.2 -2.7 -1.2 90 0.5 NE 4 6 2 3 1019.7 - 0.0
26/07:30am -0.8 -4.8 -2.5 88 0.6 W 9 15 5 8 1019.0 - 0.0
26/07:00am 0.0 -4.0 -1.9 87 0.7 W 9 19 5 10 1018.6 - 0.0
26/06:30am 0.3 -4.0 -1.3 89 0.6 W 11 15 6 8 1018.4 - 0.0
26/06:00am 1.1 -2.3 -0.7 88 0.7 W 7 15 4 8 1018.1 1021.3 0.0
26/05:30am 0.2 -3.3 -1.7 87 0.7 WNW 7 11 4 6 1017.9 - 0.0
26/05:00am 1.6 -2.1 -0.2 88 0.7 W 9 17 5 9 1017.9 - 0.0
26/04:30am 0.6 -3.2 -0.8 90 0.5 NW 9 15 5 8 1017.6 - 0.0
26/04:00am 1.0 -3.5 -0.6 89 0.6 WNW 13 20 7 11 1017.4 - 0.0
26/03:30am 1.5 -2.2 0.0 90 0.6 WNW 9 13 5 7 1017.6 - 0.0
26/03:00am 1.2 -2.2 -0.4 89 0.6 W 7 15 4 8 1017.3 1020.4 0.0
26/02:30am 1.2 -3.4 -0.7 87 0.7 W 13 24 7 13 1017.1 - 0.0
26/02:00am 1.2 -4.1 -0.9 86 0.8 WNW 17 26 9 14 1016.9 - 0.0
26/01:30am 1.4 -4.5 -0.7 86 0.8 WNW 20 30 11 16 1016.5 - 0.0
26/01:00am 1.2 -3.7 -0.6 88 0.7 NW 15 22 8 12 1016.7 - 0.0
26/12:30am 1.0 -2.8 -0.8 88 0.7 NW 9 15 5 8 1016.5 - 0.0
26/12:00am 1.5 -3.0 -0.3 88 0.7 NW 13 22 7 12 1016.7 1019.7 0.0
 
Date/Time
EST
Temp
°C
App
Temp
°C
Dew
Point
°C
Rel
Hum
%
Delta-T
°C
Wind Press
QNH
hPa
Press
MSL
hPa
Rain since
9am
mm
Dir  Spd
km/h
Gust
km/h
Spd
kts
Gust
kts
25/11:30pm 1.7 -2.4 -0.2 87 0.8 W 11 24 6 13 1016.9 - 0.0
25/11:00pm 1.4 -2.7 -0.5 87 0.7 WNW 11 28 6 15 1016.8 - 0.0
25/10:30pm 1.5 -3.4 -0.7 85 0.9 WNW 15 24 8 13 1016.9 - 0.0
25/10:00pm 1.3 -3.7 -1.3 83 1.0 WNW 15 26 8 14 1016.8 - 0.0
25/09:30pm 1.6 -3.8 -1.3 81 1.1 WNW 17 35 9 19 1016.8 - 0.0
25/09:00pm 1.8 -3.6 -1.3 80 1.2 W 17 28 9 15 1016.5 1019.6 0.0
25/08:30pm 1.4 -4.4 -1.3 82 1.0 WNW 19 30 10 16 1016.1 - 0.0
25/08:00pm 1.5 -4.2 -0.7 85 0.9 WNW 19 26 10 14 1015.9 - 0.0
25/07:30pm 1.6 -5.8 -0.6 85 0.9 WNW 28 46 15 25 1015.4 - 0.0
25/07:28pm 1.7 -5.7 -0.5 85 0.9 WNW 28 46 15 25 1015.4 - 0.0
25/07:00pm 1.6 -4.3 -0.8 84 0.9 WNW 20 28 11 15 1015.2 - 0.0
25/06:55pm 1.6 -5.8 -1.0 83 1.0 WNW 28 46 15 25 1015.1 - 0.0
25/06:50pm 1.6 -5.8 -1.0 83 1.0 WNW 28 46 15 25 1015.1 - 0.0
25/06:30pm 1.7 -4.3 -1.4 80 1.2 WNW 20 44 11 24 1014.8 - 0.0
25/06:00pm 1.1 -3.2 -2.0 80 1.2 W 11 20 6 11 1014.6 1017.6 0.0
25/05:30pm 0.3 -5.6 -2.4 82 1.0 WNW 19 32 10 17 1013.9 - 0.0
25/05:00pm 0.9 -4.5 -1.2 86 0.8 WNW 17 35 9 19 1014.4 - 0.0
25/04:30pm 1.1 -6.4 -1.5 83 1.0 WNW 28 46 15 25 1014.2 - 0.0
25/04:00pm 1.6 -5.9 -1.3 81 1.1 WNW 28 46 15 25 1013.7 - 0.0
25/03:30pm 2.2 -5.2 -0.5 82 1.1 WNW 28 43 15 23 1013.5 - 0.0
25/03:18pm 2.3 -5.1 -0.6 81 1.2 WNW 28 46 15 25 1013.4 - 0.0
25/03:13pm 2.3 -5.1 -0.6 81 1.2 WNW 28 46 15 25 1013.4 - 0.0
25/03:00pm 2.6 -4.4 -0.7 79 1.3 WNW 26 41 14 22 1013.7 1016.7 0.0
25/02:33pm 3.3 -4.3 -2.2 67 2.1 WNW 28 46 15 25 1013.6 - 0.0
25/02:31pm 2.9 -5.5 -2.2 69 2.0 WNW 32 56 17 30 1013.7 - 0.0
25/02:30pm 3.2 -4.8 -2.1 68 2.0 WNW 30 46 16 25 1013.8 - 0.0
25/02:10pm 3.6 -6.1 -2.1 66 2.2 WNW 39 59 21 32 1013.5 - 0.0
25/02:00pm 3.5 -6.1 -1.6 69 2.0 WNW 39 56 21 30 1013.4 - 0.0
25/01:30pm 4.2 -4.1 -1.8 65 2.4 WNW 32 54 17 29 1013.6 - 0.0
25/01:00pm 4.5 -3.1 -1.9 63 2.5 W 28 48 15 26 1013.7 - 0.0
25/12:30pm 4.0 -4.3 -2.0 65 2.3 W 32 52 17 28 1014.0 - 0.0
25/12:00pm 3.3 -5.1 -2.6 65 2.3 WNW 32 63 17 34 1014.0 1017.2 0.0
25/11:30am 3.2 -6.5 -2.1 68 2.0 WNW 39 59 21 32 1014.2 - 0.0
25/11:02am 2.4 -7.3 -2.3 71 1.8 WNW 39 57 21 31 1014.5 - 0.0
25/11:00am 2.8 -6.9 -2.1 70 1.9 WNW 39 57 21 31 1014.5 - 0.0
25/10:41am 2.5 -5.9 -2.2 71 1.8 WNW 32 50 17 27 1014.9 - 0.0
25/10:36am 2.5 -5.9 -2.2 71 1.8 WNW 32 50 17 27 1014.9 - 0.0
25/10:30am 2.2 -6.2 -2.5 71 1.8 WNW 32 46 17 25 1015.1 - 0.0
25/10:00am 1.2 -7.2 -2.4 77 1.4 WNW 32 50 17 27 1015.1 - 0.0
25/09:30am 1.5 -6.1 -2.3 76 1.4 WNW 28 46 15 25 1014.6 - 0.0
25/09:00am 0.6 -5.4 -3.0 77 1.4 WNW 19 30 10 16 1014.5 1017.5 0.0
25/08:30am 0.3 -5.9 -3.4 76 1.4 W 20 33 11 18 1014.5 - 0.0
25/08:00am -0.3 -5.6 -3.5 79 1.1 WNW 15 33 8 18 1014.4 - 0.0
25/07:30am -1.0 -6.0 -4.0 80 1.0 WNW 13 26 7 14 1014.4 - 0.0
25/07:00am -1.8 -5.7 -4.6 81 0.9 WNW 7 19 4 10 1014.3 - 0.0
25/06:30am -2.3 -6.6 -5.1 81 0.8 NNW 9 17 5 9 1014.3 - 0.0
25/06:00am -2.9 -8.4 -5.4 83 0.7 WNW 15 26 8 14 1013.9 1016.9 0.0
25/05:30am -5.1 -9.0 -6.9 87 0.4 NW 6 13 3 7 1013.8 - 0.0
25/05:00am -3.7 -8.5 -6.3 82 0.7 NW 11 19 6 10 1013.6 - 0.0
25/04:30am -2.9 -8.8 -5.4 83 0.7 NNW 17 26 9 14 1013.4 - 0.0
25/04:00am -3.5 -9.0 -5.8 84 0.6 NW 15 20 8 11 1013.6 - 0.0
25/03:30am -2.8 -8.3 -5.1 84 0.6 NW 15 24 8 13 1013.7 - 0.0
25/03:00am -3.4 -8.9 -5.2 87 0.4 NW 15 24 8 13 1013.8 1016.8 0.0
25/02:47am -3.7 -9.2 -5.5 87 0.4 NW 15 20 8 11 1014.2 - 0.0
25/02:42am -3.7 -9.2 -5.5 87 0.4 NW 15 20 8 11 1014.2 - 0.0
25/02:30am -3.6 -8.7 -5.3 88 0.4 NW 13 22 7 12 1014.2 - 0.0
25/02:28am -3.6 -8.7 -5.4 87 0.4 NW 13 19 7 10 1014.0 - 0.0
25/02:23am -3.6 -8.7 -5.4 87 0.4 NW 13 19 7 10 1014.0 - 0.0
25/02:00am -3.3 -8.0 -5.0 88 0.4 NW 11 20 6 11 1014.2 - 0.0
25/01:30am -3.5 -7.8 -5.0 89 0.3 NNW 9 19 5 10 1014.0 - 0.0
25/01:00am -4.5 -8.6 -6.3 87 0.4 N 7 9 4 5 1014.2 - 0.0
25/12:41am -3.7 -7.7 -5.5 87 0.4 N 7 11 4 6 1014.4 - 0.0
25/12:36am -3.7 -7.7 -5.5 87 0.4 N 7 11 4 6 1014.4 - 0.0
25/12:30am -3.4 -7.3 -5.1 88 0.4 N 7 11 4 6 1014.4 - 0.0
25/12:22am -3.2 -7.5 -4.7 89 0.4 N 9 13 5 7 1014.5 - 0.0
25/12:17am -3.2 -7.5 -4.7 89 0.4 N 9 13 5 7 1014.5 - 0.0
25/12:09am -3.6 -7.5 -4.9 91 0.3 N 7 9 4 5 1014.6 - 0.0
25/12:04am -3.6 -7.5 -4.9 91 0.3 N 7 9 4 5 1014.6 - 0.0
25/12:00am -3.6 -7.3 -4.9 91 0.3 N 6 9 3 5 1014.7 1017.7 0.0
 
Date/Time
EST
Temp
°C
App
Temp
°C
Dew
Point
°C
Rel
Hum
%
Delta-T
°C
Wind Press
QNH
hPa
Press
MSL
hPa
Rain since
9am
mm
Dir  Spd
km/h
Gust
km/h
Spd
kts
Gust
kts
24/11:52pm -4.7 -8.2 -6.2 89 0.3 N 4 9 2 5 1014.8 - 0.0
24/11:47pm -4.7 -8.2 -6.2 89 0.3 N 4 9 2 5 1014.8 - 0.0
24/11:39pm -3.4 -6.7 -4.5 92 0.2 NNW 4 6 2 3 1014.9 - 0.0
24/11:34pm -3.4 -6.7 -4.5 92 0.2 NNW 4 6 2 3 1014.9 - 0.0
24/11:30pm -3.5 -7.2 -4.6 92 0.2 NW 6 9 3 5 1014.9 - 0.0
24/11:21pm -3.6 -7.5 -4.7 92 0.2 NNW 7 17 4 9 1014.9 - 0.0
24/11:16pm -3.6 -7.5 -4.7 92 0.2 NNW 7 17 4 9 1014.9 - 0.0
24/11:00pm -3.5 -7.4 -4.5 93 0.2 NW 7 11 4 6 1015.1 - 0.0
24/10:30pm -4.8 -7.8 -5.5 95 0.0 NNW 2 9 1 5 1015.3 - 0.0
24/10:00pm -4.7 -7.8 -5.7 93 0.1 NNW 2 4 1 2 1015.3 - 0.0
24/09:30pm -4.2 -7.9 -5.0 94 0.1 NNW 6 11 3 6 1015.4 - 0.0
24/09:00pm -3.2 -6.8 -4.0 94 0.1 NW 6 7 3 4 1015.5 1018.6 0.0
24/08:30pm -4.0 -6.6 -5.0 93 0.2 CALM 0 4 0 2 1015.5 - 0.0
24/08:00pm -2.8 -5.3 -3.6 94 0.2 CALM 0 0 0 0 1015.5 - 0.0
24/07:30pm -3.4 -7.3 -4.8 90 0.3 WNW 7 9 4 5 1015.4 - 0.0
24/07:00pm -2.3 -6.5 -3.6 91 0.4 WNW 9 15 5 8 1015.3 - 0.0
24/06:30pm -3.2 -6.9 -4.6 90 0.3 W 6 7 3 4 1015.2 - 0.0
24/06:00pm -1.6 -4.0 -3.2 89 0.5 CALM 0 4 0 2 1014.9 1018.0 0.0
24/05:30pm -1.0 -4.8 -3.5 83 0.8 W 7 13 4 7 1014.7 - 0.0
24/05:00pm 0.1 -4.8 -3.3 78 1.2 NW 13 17 7 9 1014.7 - 0.0
24/04:30pm 2.4 -1.3 -2.7 69 1.9 WNW 7 11 4 6 1014.7 - 0.0
24/04:00pm 2.5 -1.8 -2.0 72 1.7 NNW 11 17 6 9 1014.6 - 0.0
24/03:30pm 3.0 -1.7 -1.9 70 1.9 NNW 13 17 7 9 1014.5 - 0.0
24/03:00pm 4.4 -0.4 -2.2 62 2.6 WNW 13 19 7 10 1014.3 1017.3 0.0
24/02:30pm 5.0 -0.1 -1.7 62 2.7 NW 15 20 8 11 1014.3 - 0.0
24/02:00pm 4.1 -0.5 -0.7 71 1.9 WNW 13 20 7 11 1014.2 - 0.0
24/01:30pm 5.2 1.0 -1.0 64 2.5 WNW 11 17 6 9 1014.3 - 0.0
24/01:00pm 5.2 0.0 -2.4 58 3.0 NW 15 20 8 11 1014.4 - 0.0
24/12:30pm 4.7 -0.5 -2.8 58 2.9 NW 15 20 8 11 1014.4 - 0.0
24/12:00pm 5.3 -0.1 -1.6 61 2.8 NW 17 26 9 14 1014.8 1017.7 0.0
24/11:30am 5.0 0.5 -0.2 69 2.1 NW 13 22 7 12 1015.1 - 0.0
24/11:00am 5.0 0.5 -0.2 69 2.1 NW 13 20 7 11 1015.3 - 0.0
24/10:30am 4.3 -0.6 -0.7 70 2.0 NW 15 24 8 13 1015.4 - 0.0
24/10:00am 3.3 -0.3 0.5 82 1.2 W 9 15 5 8 1015.5 - 0.0
24/09:30am 2.7 -0.5 0.9 88 0.7 NW 7 15 4 8 1015.3 - 0.0
24/09:00am 1.2 -2.1 0.0 92 0.5 W 7 13 4 7 1015.3 1018.3 0.0
24/08:30am 1.1 -2.2 -0.2 91 0.5 W 7 11 4 6 1014.9 - 0.0
24/08:00am 1.5 -1.6 -0.1 89 0.6 W 6 13 3 7 1014.7 - 0.0
24/07:30am -0.4 -3.6 -3.1 82 1.0 NNW 4 7 2 4 1014.4 - 0.0
24/07:00am 1.3 -2.6 -1.8 80 1.2 W 9 20 5 11 1013.9 - 0.0

Other Formats:

Comma delimited format used in spreadsheet applications
http://www.bom.gov.au/fwo/IDV60801/IDV60801.94905.axf

JavaScript Object Notation format (JSON) in row-major order
http://www.bom.gov.au/fwo/IDV60801/IDV60801.94905.json